sensor_id;sensor_type;location;lat;lon;timestamp;temperature;humidity
14101;DHT22;7127;49.372;8.166;2023-06-14T00:00:41;23.10;29.00
14101;DHT22;7127;49.372;8.166;2023-06-14T00:03:10;23.10;29.10
14101;DHT22;7127;49.372;8.166;2023-06-14T00:05:37;23.10;29.00
14101;DHT22;7127;49.372;8.166;2023-06-14T00:08:08;23.10;29.10
14101;DHT22;7127;49.372;8.166;2023-06-14T00:10:36;23.10;29.10
14101;DHT22;7127;49.372;8.166;2023-06-14T00:13:07;23.00;29.00
14101;DHT22;7127;49.372;8.166;2023-06-14T00:15:35;23.00;29.10
14101;DHT22;7127;49.372;8.166;2023-06-14T00:18:02;22.90;29.10
14101;DHT22;7127;49.372;8.166;2023-06-14T00:20:30;23.00;29.10
14101;DHT22;7127;49.372;8.166;2023-06-14T00:22:58;22.90;29.10
14101;DHT22;7127;49.372;8.166;2023-06-14T00:25:25;23.00;29.20
14101;DHT22;7127;49.372;8.166;2023-06-14T00:27:52;23.00;29.30
14101;DHT22;7127;49.372;8.166;2023-06-14T00:30:21;22.90;29.20
14101;DHT22;7127;49.372;8.166;2023-06-14T00:32:48;23.00;29.50
14101;DHT22;7127;49.372;8.166;2023-06-14T00:35:15;22.90;29.40
14101;DHT22;7127;49.372;8.166;2023-06-14T00:37:42;22.70;29.30
14101;DHT22;7127;49.372;8.166;2023-06-14T00:40:09;22.80;29.40
14101;DHT22;7127;49.372;8.166;2023-06-14T00:42:36;22.80;29.40
14101;DHT22;7127;49.372;8.166;2023-06-14T00:45:05;22.80;29.40
14101;DHT22;7127;49.372;8.166;2023-06-14T00:47:33;22.80;29.50
14101;DHT22;7127;49.372;8.166;2023-06-14T00:50:01;22.60;29.50
14101;DHT22;7127;49.372;8.166;2023-06-14T00:52:29;22.70;29.60
14101;DHT22;7127;49.372;8.166;2023-06-14T00:54:57;22.70;29.60
14101;DHT22;7127;49.372;8.166;2023-06-14T00:57:24;22.60;29.70
14101;DHT22;7127;49.372;8.166;2023-06-14T00:59:51;22.60;30.10
14101;DHT22;7127;49.372;8.166;2023-06-14T01:02:18;22.60;29.80
14101;DHT22;7127;49.372;8.166;2023-06-14T01:04:47;22.60;29.90
14101;DHT22;7127;49.372;8.166;2023-06-14T01:07:21;22.40;29.80
14101;DHT22;7127;49.372;8.166;2023-06-14T01:09:58;22.50;30.00
14101;DHT22;7127;49.372;8.166;2023-06-14T01:12:34;22.50;30.10
14101;DHT22;7127;49.372;8.166;2023-06-14T01:15:03;22.50;30.00
14101;DHT22;7127;49.372;8.166;2023-06-14T01:17:30;22.40;30.00
14101;DHT22;7127;49.372;8.166;2023-06-14T01:20:01;22.30;30.00
14101;DHT22;7127;49.372;8.166;2023-06-14T01:22:28;22.30;30.10
14101;DHT22;7127;49.372;8.166;2023-06-14T01:24:57;22.30;30.20
14101;DHT22;7127;49.372;8.166;2023-06-14T01:27:26;22.30;30.30
14101;DHT22;7127;49.372;8.166;2023-06-14T01:29:55;22.30;30.40
14101;DHT22;7127;49.372;8.166;2023-06-14T01:32:23;22.30;30.50
14101;DHT22;7127;49.372;8.166;2023-06-14T01:34:51;22.20;30.40
14101;DHT22;7127;49.372;8.166;2023-06-14T01:37:18;22.10;30.40
14101;DHT22;7127;49.372;8.166;2023-06-14T01:39:47;22.10;30.40
14101;DHT22;7127;49.372;8.166;2023-06-14T01:42:18;22.10;30.50
14101;DHT22;7127;49.372;8.166;2023-06-14T01:44:46;22.10;30.50
14101;DHT22;7127;49.372;8.166;2023-06-14T01:47:14;21.80;30.30
14101;DHT22;7127;49.372;8.166;2023-06-14T01:49:41;22.00;30.70
14101;DHT22;7127;49.372;8.166;2023-06-14T01:52:08;22.00;30.60
14101;DHT22;7127;49.372;8.166;2023-06-14T01:54:35;21.90;30.50
14101;DHT22;7127;49.372;8.166;2023-06-14T01:57:07;21.90;30.60
14101;DHT22;7127;49.372;8.166;2023-06-14T01:59:35;21.90;30.80
14101;DHT22;7127;49.372;8.166;2023-06-14T02:02:03;21.80;30.80
14101;DHT22;7127;49.372;8.166;2023-06-14T02:04:30;21.80;31.10
14101;DHT22;7127;49.372;8.166;2023-06-14T02:06:57;21.80;30.90
14101;DHT22;7127;49.372;8.166;2023-06-14T02:09:24;21.80;31.00
14101;DHT22;7127;49.372;8.166;2023-06-14T02:11:51;21.80;31.00
14101;DHT22;7127;49.372;8.166;2023-06-14T02:14:17;21.80;31.30
14101;DHT22;7127;49.372;8.166;2023-06-14T02:16:46;21.70;31.30
14101;DHT22;7127;49.372;8.166;2023-06-14T02:19:14;21.70;31.10
14101;DHT22;7127;49.372;8.166;2023-06-14T02:21:41;21.80;31.20
14101;DHT22;7127;49.372;8.166;2023-06-14T02:24:08;21.80;31.40
14101;DHT22;7127;49.372;8.166;2023-06-14T02:26:35;21.80;31.40
14101;DHT22;7127;49.372;8.166;2023-06-14T02:29:03;21.70;31.40
14101;DHT22;7127;49.372;8.166;2023-06-14T02:31:31;21.70;31.70
14101;DHT22;7127;49.372;8.166;2023-06-14T02:33:59;21.80;31.50
14101;DHT22;7127;49.372;8.166;2023-06-14T02:36:26;21.70;31.70
14101;DHT22;7127;49.372;8.166;2023-06-14T02:38:52;21.70;31.60
14101;DHT22;7127;49.372;8.166;2023-06-14T02:41:20;21.80;31.60
14101;DHT22;7127;49.372;8.166;2023-06-14T02:43:46;21.80;32.00
14101;DHT22;7127;49.372;8.166;2023-06-14T02:46:13;21.70;31.70
14101;DHT22;7127;49.372;8.166;2023-06-14T02:48:40;21.70;31.60
14101;DHT22;7127;49.372;8.166;2023-06-14T02:51:09;21.70;31.60
14101;DHT22;7127;49.372;8.166;2023-06-14T02:53:38;21.70;31.70
14101;DHT22;7127;49.372;8.166;2023-06-14T02:56:06;21.80;31.70
14101;DHT22;7127;49.372;8.166;2023-06-14T02:58:32;21.70;31.70
14101;DHT22;7127;49.372;8.166;2023-06-14T03:00:59;21.80;31.70
14101;DHT22;7127;49.372;8.166;2023-06-14T03:03:29;21.70;31.60
14101;DHT22;7127;49.372;8.166;2023-06-14T03:05:55;21.70;31.60
14101;DHT22;7127;49.372;8.166;2023-06-14T03:08:24;21.80;31.80
14101;DHT22;7127;49.372;8.166;2023-06-14T03:10:53;21.80;32.00
14101;DHT22;7127;49.372;8.166;2023-06-14T03:13:21;21.80;31.80
14101;DHT22;7127;49.372;8.166;2023-06-14T03:15:49;21.80;31.80
14101;DHT22;7127;49.372;8.166;2023-06-14T03:18:17;21.80;31.90
14101;DHT22;7127;49.372;8.166;2023-06-14T03:20:44;21.70;31.90
14101;DHT22;7127;49.372;8.166;2023-06-14T03:23:12;21.70;31.90
14101;DHT22;7127;49.372;8.166;2023-06-14T03:25:40;21.70;31.90
14101;DHT22;7127;49.372;8.166;2023-06-14T03:28:08;21.60;32.00
14101;DHT22;7127;49.372;8.166;2023-06-14T03:30:35;21.60;32.00
14101;DHT22;7127;49.372;8.166;2023-06-14T03:33:03;21.60;32.00
14101;DHT22;7127;49.372;8.166;2023-06-14T03:35:30;21.60;32.20
14101;DHT22;7127;49.372;8.166;2023-06-14T03:37:57;21.50;32.20
14101;DHT22;7127;49.372;8.166;2023-06-14T03:40:23;21.50;32.20
14101;DHT22;7127;49.372;8.166;2023-06-14T03:42:54;21.50;32.30
14101;DHT22;7127;49.372;8.166;2023-06-14T03:45:21;21.40;32.90
14101;DHT22;7127;49.372;8.166;2023-06-14T03:47:48;21.40;32.50
14101;DHT22;7127;49.372;8.166;2023-06-14T03:50:16;21.40;32.50
14101;DHT22;7127;49.372;8.166;2023-06-14T03:52:43;21.30;32.60
14101;DHT22;7127;49.372;8.166;2023-06-14T03:55:10;21.30;32.60
14101;DHT22;7127;49.372;8.166;2023-06-14T03:57:38;21.30;32.80
14101;DHT22;7127;49.372;8.166;2023-06-14T04:00:08;21.30;32.80
14101;DHT22;7127;49.372;8.166;2023-06-14T04:02:36;21.30;32.80
14101;DHT22;7127;49.372;8.166;2023-06-14T04:05:03;21.20;32.70
14101;DHT22;7127;49.372;8.166;2023-06-14T04:07:31;21.20;32.90
14101;DHT22;7127;49.372;8.166;2023-06-14T04:09:57;21.10;32.90
14101;DHT22;7127;49.372;8.166;2023-06-14T04:12:24;21.20;33.10
14101;DHT22;7127;49.372;8.166;2023-06-14T04:14:51;21.20;33.10
14101;DHT22;7127;49.372;8.166;2023-06-14T04:17:19;21.10;33.10
14101;DHT22;7127;49.372;8.166;2023-06-14T04:19:46;21.10;33.80
14101;DHT22;7127;49.372;8.166;2023-06-14T04:22:13;21.20;33.30
14101;DHT22;7127;49.372;8.166;2023-06-14T04:24:40;21.00;33.10
14101;DHT22;7127;49.372;8.166;2023-06-14T04:27:08;21.20;33.40
14101;DHT22;7127;49.372;8.166;2023-06-14T04:29:35;21.20;33.40
14101;DHT22;7127;49.372;8.166;2023-06-14T04:32:02;21.30;33.40
14101;DHT22;7127;49.372;8.166;2023-06-14T04:34:31;21.30;33.50
14101;DHT22;7127;49.372;8.166;2023-06-14T04:36:59;21.30;33.50
14101;DHT22;7127;49.372;8.166;2023-06-14T04:39:26;21.40;33.60
14101;DHT22;7127;49.372;8.166;2023-06-14T04:41:53;21.40;34.30
14101;DHT22;7127;49.372;8.166;2023-06-14T04:44:23;21.40;33.70
14101;DHT22;7127;49.372;8.166;2023-06-14T04:46:55;21.50;33.70
14101;DHT22;7127;49.372;8.166;2023-06-14T04:49:24;21.50;34.20
14101;DHT22;7127;49.372;8.166;2023-06-14T04:51:53;21.50;33.90
14101;DHT22;7127;49.372;8.166;2023-06-14T04:54:23;21.50;34.20
14101;DHT22;7127;49.372;8.166;2023-06-14T04:56:50;21.50;34.00
14101;DHT22;7127;49.372;8.166;2023-06-14T04:59:17;21.50;34.10
14101;DHT22;7127;49.372;8.166;2023-06-14T05:01:44;21.50;34.20
14101;DHT22;7127;49.372;8.166;2023-06-14T05:04:13;21.50;34.30
14101;DHT22;7127;49.372;8.166;2023-06-14T05:06:41;21.50;34.50
14101;DHT22;7127;49.372;8.166;2023-06-14T05:09:12;21.50;34.80
14101;DHT22;7127;49.372;8.166;2023-06-14T05:11:39;21.60;34.30
14101;DHT22;7127;49.372;8.166;2023-06-14T05:14:07;21.60;34.70
14101;DHT22;7127;49.372;8.166;2023-06-14T05:16:34;21.60;34.60
14101;DHT22;7127;49.372;8.166;2023-06-14T05:19:02;21.50;34.80
14101;DHT22;7127;49.372;8.166;2023-06-14T05:21:29;21.50;34.60
14101;DHT22;7127;49.372;8.166;2023-06-14T05:23:57;21.60;34.70
14101;DHT22;7127;49.372;8.166;2023-06-14T05:26:26;21.60;34.70
14101;DHT22;7127;49.372;8.166;2023-06-14T05:28:54;21.60;34.60
14101;DHT22;7127;49.372;8.166;2023-06-14T05:31:22;21.70;34.70
14101;DHT22;7127;49.372;8.166;2023-06-14T05:33:49;21.70;34.70
14101;DHT22;7127;49.372;8.166;2023-06-14T05:36:16;21.70;34.60
14101;DHT22;7127;49.372;8.166;2023-06-14T05:38:43;21.80;34.70
14101;DHT22;7127;49.372;8.166;2023-06-14T05:41:10;22.00;34.80
14101;DHT22;7127;49.372;8.166;2023-06-14T05:43:38;21.90;34.90
14101;DHT22;7127;49.372;8.166;2023-06-14T05:46:05;21.80;34.80
14101;DHT22;7127;49.372;8.166;2023-06-14T05:48:32;21.90;34.90
14101;DHT22;7127;49.372;8.166;2023-06-14T05:50:59;21.90;34.90
14101;DHT22;7127;49.372;8.166;2023-06-14T05:53:26;21.90;34.80
14101;DHT22;7127;49.372;8.166;2023-06-14T05:55:53;22.00;35.10
14101;DHT22;7127;49.372;8.166;2023-06-14T05:58:20;22.00;35.90
14101;DHT22;7127;49.372;8.166;2023-06-14T06:00:48;22.10;35.20
14101;DHT22;7127;49.372;8.166;2023-06-14T06:03:16;21.90;35.10
14101;DHT22;7127;49.372;8.166;2023-06-14T06:05:43;22.10;35.20
14101;DHT22;7127;49.372;8.166;2023-06-14T06:08:09;22.10;35.20
14101;DHT22;7127;49.372;8.166;2023-06-14T06:10:36;22.20;35.40
14101;DHT22;7127;49.372;8.166;2023-06-14T06:13:03;22.20;35.20
14101;DHT22;7127;49.372;8.166;2023-06-14T06:15:30;22.20;35.50
14101;DHT22;7127;49.372;8.166;2023-06-14T06:17:58;22.20;35.60
14101;DHT22;7127;49.372;8.166;2023-06-14T06:20:25;22.20;35.50
14101;DHT22;7127;49.372;8.166;2023-06-14T06:22:54;22.30;35.50
14101;DHT22;7127;49.372;8.166;2023-06-14T06:25:21;22.40;35.50
14101;DHT22;7127;49.372;8.166;2023-06-14T06:27:51;22.30;35.30
14101;DHT22;7127;49.372;8.166;2023-06-14T06:30:18;22.40;35.40
14101;DHT22;7127;49.372;8.166;2023-06-14T06:32:45;22.30;35.50
14101;DHT22;7127;49.372;8.166;2023-06-14T06:35:14;22.40;35.40
14101;DHT22;7127;49.372;8.166;2023-06-14T06:37:41;22.50;35.90
14101;DHT22;7127;49.372;8.166;2023-06-14T06:40:09;22.50;35.60
14101;DHT22;7127;49.372;8.166;2023-06-14T06:42:36;22.50;35.60
14101;DHT22;7127;49.372;8.166;2023-06-14T06:45:04;22.60;35.70
14101;DHT22;7127;49.372;8.166;2023-06-14T06:47:31;22.70;35.70
14101;DHT22;7127;49.372;8.166;2023-06-14T06:49:58;22.70;35.60
14101;DHT22;7127;49.372;8.166;2023-06-14T06:52:26;22.70;35.60
14101;DHT22;7127;49.372;8.166;2023-06-14T06:54:53;22.70;35.60
14101;DHT22;7127;49.372;8.166;2023-06-14T06:57:21;22.90;35.80
14101;DHT22;7127;49.372;8.166;2023-06-14T06:59:48;22.80;35.80
14101;DHT22;7127;49.372;8.166;2023-06-14T07:02:16;22.90;35.80
14101;DHT22;7127;49.372;8.166;2023-06-14T07:04:43;22.80;35.70
14101;DHT22;7127;49.372;8.166;2023-06-14T07:07:10;22.90;35.70
14101;DHT22;7127;49.372;8.166;2023-06-14T07:09:38;22.90;35.70
14101;DHT22;7127;49.372;8.166;2023-06-14T07:12:06;23.00;36.70
14101;DHT22;7127;49.372;8.166;2023-06-14T07:14:33;23.00;36.00
14101;DHT22;7127;49.372;8.166;2023-06-14T07:17:00;23.00;35.80
14101;DHT22;7127;49.372;8.166;2023-06-14T07:19:27;23.10;35.90
14101;DHT22;7127;49.372;8.166;2023-06-14T07:21:54;23.10;36.10
14101;DHT22;7127;49.372;8.166;2023-06-14T07:24:21;23.10;36.20
14101;DHT22;7127;49.372;8.166;2023-06-14T07:26:49;23.10;36.00
14101;DHT22;7127;49.372;8.166;2023-06-14T07:29:15;23.20;36.00
14101;DHT22;7127;49.372;8.166;2023-06-14T07:31:43;23.20;36.20
14101;DHT22;7127;49.372;8.166;2023-06-14T07:34:09;23.20;36.00
14101;DHT22;7127;49.372;8.166;2023-06-14T07:36:36;23.20;36.00
14101;DHT22;7127;49.372;8.166;2023-06-14T07:39:03;23.30;36.10
14101;DHT22;7127;49.372;8.166;2023-06-14T07:41:31;23.30;36.00
14101;DHT22;7127;49.372;8.166;2023-06-14T07:43:59;23.50;36.10
14101;DHT22;7127;49.372;8.166;2023-06-14T07:46:26;23.50;36.10
14101;DHT22;7127;49.372;8.166;2023-06-14T07:48:53;23.70;36.30
14101;DHT22;7127;49.372;8.166;2023-06-14T07:51:20;23.60;36.20
14101;DHT22;7127;49.372;8.166;2023-06-14T07:53:48;23.80;36.10
14101;DHT22;7127;49.372;8.166;2023-06-14T07:56:15;23.70;35.80
14101;DHT22;7127;49.372;8.166;2023-06-14T07:58:41;23.70;35.70
14101;DHT22;7127;49.372;8.166;2023-06-14T08:01:10;23.80;36.00
14101;DHT22;7127;49.372;8.166;2023-06-14T08:03:37;23.80;35.80
14101;DHT22;7127;49.372;8.166;2023-06-14T08:06:05;23.90;35.90
14101;DHT22;7127;49.372;8.166;2023-06-14T08:08:33;23.90;35.80
14101;DHT22;7127;49.372;8.166;2023-06-14T08:11:00;23.90;35.70
14101;DHT22;7127;49.372;8.166;2023-06-14T08:13:26;23.90;35.50
14101;DHT22;7127;49.372;8.166;2023-06-14T08:15:53;24.10;35.60
14101;DHT22;7127;49.372;8.166;2023-06-14T08:18:22;24.10;35.60
14101;DHT22;7127;49.372;8.166;2023-06-14T08:20:49;24.20;35.70
14101;DHT22;7127;49.372;8.166;2023-06-14T08:23:15;24.30;35.60
14101;DHT22;7127;49.372;8.166;2023-06-14T08:25:44;24.30;35.20
14101;DHT22;7127;49.372;8.166;2023-06-14T08:28:11;24.40;35.30
14101;DHT22;7127;49.372;8.166;2023-06-14T08:30:38;24.40;35.30
14101;DHT22;7127;49.372;8.166;2023-06-14T08:33:05;24.40;35.20
14101;DHT22;7127;49.372;8.166;2023-06-14T08:35:34;24.50;35.30
14101;DHT22;7127;49.372;8.166;2023-06-14T08:38:02;24.60;35.40
14101;DHT22;7127;49.372;8.166;2023-06-14T08:40:30;24.60;35.20
14101;DHT22;7127;49.372;8.166;2023-06-14T08:42:57;24.70;35.10
14101;DHT22;7127;49.372;8.166;2023-06-14T08:45:24;24.70;35.10
14101;DHT22;7127;49.372;8.166;2023-06-14T08:47:51;24.80;35.10
14101;DHT22;7127;49.372;8.166;2023-06-14T08:50:23;24.90;35.10
14101;DHT22;7127;49.372;8.166;2023-06-14T08:52:57;24.90;35.00
14101;DHT22;7127;49.372;8.166;2023-06-14T08:55:27;25.00;34.90
14101;DHT22;7127;49.372;8.166;2023-06-14T08:57:55;25.10;35.00
14101;DHT22;7127;49.372;8.166;2023-06-14T09:00:24;25.10;34.90
14101;DHT22;7127;49.372;8.166;2023-06-14T09:02:52;25.10;34.80
14101;DHT22;7127;49.372;8.166;2023-06-14T09:05:23;25.20;34.60
14101;DHT22;7127;49.372;8.166;2023-06-14T09:07:50;25.20;34.60
14101;DHT22;7127;49.372;8.166;2023-06-14T09:10:20;25.30;34.20
14101;DHT22;7127;49.372;8.166;2023-06-14T09:12:47;25.40;34.20
14101;DHT22;7127;49.372;8.166;2023-06-14T09:15:14;25.40;34.10
14101;DHT22;7127;49.372;8.166;2023-06-14T09:17:42;25.40;34.50
14101;DHT22;7127;49.372;8.166;2023-06-14T09:20:10;25.50;33.70
14101;DHT22;7127;49.372;8.166;2023-06-14T09:22:39;25.60;33.70
14101;DHT22;7127;49.372;8.166;2023-06-14T09:25:07;25.60;33.40
14101;DHT22;7127;49.372;8.166;2023-06-14T09:27:36;25.70;33.20
14101;DHT22;7127;49.372;8.166;2023-06-14T09:30:06;25.70;33.10
14101;DHT22;7127;49.372;8.166;2023-06-14T09:32:36;25.80;32.90
14101;DHT22;7127;49.372;8.166;2023-06-14T09:35:04;25.90;32.80
14101;DHT22;7127;49.372;8.166;2023-06-14T09:37:32;25.90;32.10
14101;DHT22;7127;49.372;8.166;2023-06-14T09:39:59;25.80;31.40
14101;DHT22;7127;49.372;8.166;2023-06-14T09:42:26;25.90;31.70
14101;DHT22;7127;49.372;8.166;2023-06-14T09:44:56;26.00;32.00
14101;DHT22;7127;49.372;8.166;2023-06-14T09:47:24;26.10;32.00
14101;DHT22;7127;49.372;8.166;2023-06-14T09:49:51;26.20;31.80
14101;DHT22;7127;49.372;8.166;2023-06-14T09:52:20;26.20;31.30
14101;DHT22;7127;49.372;8.166;2023-06-14T09:54:48;26.10;31.50
14101;DHT22;7127;49.372;8.166;2023-06-14T09:57:16;26.20;31.10
14101;DHT22;7127;49.372;8.166;2023-06-14T09:59:45;26.20;30.90
14101;DHT22;7127;49.372;8.166;2023-06-14T10:02:21;26.10;31.00
14101;DHT22;7127;49.372;8.166;2023-06-14T10:04:58;26.40;30.50
14101;DHT22;7127;49.372;8.166;2023-06-14T10:07:30;26.40;30.30
14101;DHT22;7127;49.372;8.166;2023-06-14T10:09:58;26.40;30.00
14101;DHT22;7127;49.372;8.166;2023-06-14T10:12:26;26.40;29.80
14101;DHT22;7127;49.372;8.166;2023-06-14T10:14:53;26.50;30.00
14101;DHT22;7127;49.372;8.166;2023-06-14T10:17:28;26.50;30.10
14101;DHT22;7127;49.372;8.166;2023-06-14T10:20:10;26.40;30.00
14101;DHT22;7127;49.372;8.166;2023-06-14T10:22:45;26.50;29.90
14101;DHT22;7127;49.372;8.166;2023-06-14T10:25:26;26.40;30.00
14101;DHT22;7127;49.372;8.166;2023-06-14T10:28:02;26.40;29.90
14101;DHT22;7127;49.372;8.166;2023-06-14T10:30:29;26.50;30.00
14101;DHT22;7127;49.372;8.166;2023-06-14T10:33:04;26.50;30.00
14101;DHT22;7127;49.372;8.166;2023-06-14T10:35:32;26.50;29.90
14101;DHT22;7127;49.372;8.166;2023-06-14T10:38:07;26.50;29.80
14101;DHT22;7127;49.372;8.166;2023-06-14T10:40:34;26.60;29.90
14101;DHT22;7127;49.372;8.166;2023-06-14T10:43:21;26.60;30.00
14101;DHT22;7127;49.372;8.166;2023-06-14T10:46:14;26.60;29.70
14101;DHT22;7127;49.372;8.166;2023-06-14T10:48:43;26.70;29.10
14101;DHT22;7127;49.372;8.166;2023-06-14T10:51:16;26.70;29.40
14101;DHT22;7127;49.372;8.166;2023-06-14T10:53:45;26.70;29.30
14101;DHT22;7127;49.372;8.166;2023-06-14T10:56:23;26.60;29.50
14101;DHT22;7127;49.372;8.166;2023-06-14T10:58:51;26.60;29.10
14101;DHT22;7127;49.372;8.166;2023-06-14T11:01:22;26.70;29.40
14101;DHT22;7127;49.372;8.166;2023-06-14T11:03:52;26.70;29.60
14101;DHT22;7127;49.372;8.166;2023-06-14T11:06:22;26.60;29.60
14101;DHT22;7127;49.372;8.166;2023-06-14T11:11:54;26.80;29.70
14101;DHT22;7127;49.372;8.166;2023-06-14T11:14:22;26.90;29.70
14101;DHT22;7127;49.372;8.166;2023-06-14T11:16:50;26.90;29.60
14101;DHT22;7127;49.372;8.166;2023-06-14T11:19:18;26.90;29.50
14101;DHT22;7127;49.372;8.166;2023-06-14T11:21:47;26.90;29.50
14101;DHT22;7127;49.372;8.166;2023-06-14T11:24:14;26.90;29.20
14101;DHT22;7127;49.372;8.166;2023-06-14T11:26:41;27.10;28.80
14101;DHT22;7127;49.372;8.166;2023-06-14T11:29:08;27.00;28.70
14101;DHT22;7127;49.372;8.166;2023-06-14T11:31:34;27.10;28.70
14101;DHT22;7127;49.372;8.166;2023-06-14T11:34:01;27.10;28.50
14101;DHT22;7127;49.372;8.166;2023-06-14T11:36:31;27.10;28.60
14101;DHT22;7127;49.372;8.166;2023-06-14T11:39:01;27.10;28.60
14101;DHT22;7127;49.372;8.166;2023-06-14T11:41:37;27.20;28.80
14101;DHT22;7127;49.372;8.166;2023-06-14T11:44:04;27.10;28.70
14101;DHT22;7127;49.372;8.166;2023-06-14T11:46:32;27.20;28.90
14101;DHT22;7127;49.372;8.166;2023-06-14T11:48:58;27.20;28.90
14101;DHT22;7127;49.372;8.166;2023-06-14T11:51:30;27.20;28.90
14101;DHT22;7127;49.372;8.166;2023-06-14T11:53:57;27.20;28.80
14101;DHT22;7127;49.372;8.166;2023-06-14T11:56:24;27.20;28.20
14101;DHT22;7127;49.372;8.166;2023-06-14T11:58:52;27.30;28.40
14101;DHT22;7127;49.372;8.166;2023-06-14T12:01:22;27.30;28.50
14101;DHT22;7127;49.372;8.166;2023-06-14T12:03:49;27.20;28.40
14101;DHT22;7127;49.372;8.166;2023-06-14T12:06:16;27.30;28.50
14101;DHT22;7127;49.372;8.166;2023-06-14T12:08:55;27.30;28.40
14101;DHT22;7127;49.372;8.166;2023-06-14T12:11:22;27.30;28.40
14101;DHT22;7127;49.372;8.166;2023-06-14T12:13:49;27.30;28.50
14101;DHT22;7127;49.372;8.166;2023-06-14T12:16:16;27.40;28.60
14101;DHT22;7127;49.372;8.166;2023-06-14T12:18:43;27.40;28.30
14101;DHT22;7127;49.372;8.166;2023-06-14T12:21:11;27.50;28.10
14101;DHT22;7127;49.372;8.166;2023-06-14T12:23:45;27.40;28.10
14101;DHT22;7127;49.372;8.166;2023-06-14T12:26:14;27.40;28.30
14101;DHT22;7127;49.372;8.166;2023-06-14T12:28:42;27.40;28.30
14101;DHT22;7127;49.372;8.166;2023-06-14T12:31:10;27.40;28.30
14101;DHT22;7127;49.372;8.166;2023-06-14T12:33:38;27.40;28.10
14101;DHT22;7127;49.372;8.166;2023-06-14T12:36:07;27.40;28.30
14101;DHT22;7127;49.372;8.166;2023-06-14T12:38:35;27.50;28.40
14101;DHT22;7127;49.372;8.166;2023-06-14T12:41:02;27.70;28.20
14101;DHT22;7127;49.372;8.166;2023-06-14T12:43:30;27.60;28.80
14101;DHT22;7127;49.372;8.166;2023-06-14T12:45:57;27.70;28.40
14101;DHT22;7127;49.372;8.166;2023-06-14T12:48:24;27.80;28.40
14101;DHT22;7127;49.372;8.166;2023-06-14T12:50:52;27.80;28.30
14101;DHT22;7127;49.372;8.166;2023-06-14T12:53:19;27.90;28.20
14101;DHT22;7127;49.372;8.166;2023-06-14T12:55:46;27.80;27.90
14101;DHT22;7127;49.372;8.166;2023-06-14T12:58:13;27.80;28.10
14101;DHT22;7127;49.372;8.166;2023-06-14T13:00:43;27.80;28.20
14101;DHT22;7127;49.372;8.166;2023-06-14T13:03:10;27.90;28.30
14101;DHT22;7127;49.372;8.166;2023-06-14T13:05:37;27.90;28.30
14101;DHT22;7127;49.372;8.166;2023-06-14T13:08:06;28.10;28.30
14101;DHT22;7127;49.372;8.166;2023-06-14T13:10:34;28.10;28.40
14101;DHT22;7127;49.372;8.166;2023-06-14T13:13:01;28.10;28.40
14101;DHT22;7127;49.372;8.166;2023-06-14T13:15:28;28.20;28.30
14101;DHT22;7127;49.372;8.166;2023-06-14T13:17:56;28.20;28.20
14101;DHT22;7127;49.372;8.166;2023-06-14T13:20:24;28.30;28.00
14101;DHT22;7127;49.372;8.166;2023-06-14T13:22:50;28.30;28.00
14101;DHT22;7127;49.372;8.166;2023-06-14T13:25:17;28.30;27.90
14101;DHT22;7127;49.372;8.166;2023-06-14T13:27:44;28.30;27.90
14101;DHT22;7127;49.372;8.166;2023-06-14T13:30:12;28.40;27.90
14101;DHT22;7127;49.372;8.166;2023-06-14T13:32:39;28.40;27.90
14101;DHT22;7127;49.372;8.166;2023-06-14T13:35:08;28.40;27.70
14101;DHT22;7127;49.372;8.166;2023-06-14T13:37:35;28.50;27.70
14101;DHT22;7127;49.372;8.166;2023-06-14T13:40:01;28.50;27.70
14101;DHT22;7127;49.372;8.166;2023-06-14T13:42:28;28.50;27.70
14101;DHT22;7127;49.372;8.166;2023-06-14T13:44:57;28.50;27.70
14101;DHT22;7127;49.372;8.166;2023-06-14T13:47:24;28.50;27.70
14101;DHT22;7127;49.372;8.166;2023-06-14T13:49:51;28.50;27.70
14101;DHT22;7127;49.372;8.166;2023-06-14T13:52:19;28.50;27.70
14101;DHT22;7127;49.372;8.166;2023-06-14T13:54:46;28.40;27.60
14101;DHT22;7127;49.372;8.166;2023-06-14T13:57:13;28.40;27.50
14101;DHT22;7127;49.372;8.166;2023-06-14T13:59:40;28.40;27.50
14101;DHT22;7127;49.372;8.166;2023-06-14T14:02:07;28.40;27.70
14101;DHT22;7127;49.372;8.166;2023-06-14T14:04:34;28.30;27.70
14101;DHT22;7127;49.372;8.166;2023-06-14T14:07:01;28.30;27.60
14101;DHT22;7127;49.372;8.166;2023-06-14T14:09:30;28.30;27.70
14101;DHT22;7127;49.372;8.166;2023-06-14T14:11:58;28.30;27.70
14101;DHT22;7127;49.372;8.166;2023-06-14T14:14:26;28.30;27.80
14101;DHT22;7127;49.372;8.166;2023-06-14T14:16:53;28.30;27.80
14101;DHT22;7127;49.372;8.166;2023-06-14T14:19:20;28.40;27.70
14101;DHT22;7127;49.372;8.166;2023-06-14T14:21:47;28.60;27.90
14101;DHT22;7127;49.372;8.166;2023-06-14T14:24:14;28.60;28.20
14101;DHT22;7127;49.372;8.166;2023-06-14T14:26:42;28.60;27.60
14101;DHT22;7127;49.372;8.166;2023-06-14T14:29:09;28.70;27.30
14101;DHT22;7127;49.372;8.166;2023-06-14T14:31:37;28.60;27.40
14101;DHT22;7127;49.372;8.166;2023-06-14T14:34:04;28.60;27.60
14101;DHT22;7127;49.372;8.166;2023-06-14T14:36:31;28.50;27.40
14101;DHT22;7127;49.372;8.166;2023-06-14T14:39:01;28.60;27.50
14101;DHT22;7127;49.372;8.166;2023-06-14T14:41:28;28.70;27.40
14101;DHT22;7127;49.372;8.166;2023-06-14T14:43:56;28.60;27.50
14101;DHT22;7127;49.372;8.166;2023-06-14T14:46:24;28.60;27.50
14101;DHT22;7127;49.372;8.166;2023-06-14T14:48:51;28.60;27.60
14101;DHT22;7127;49.372;8.166;2023-06-14T14:51:18;28.70;27.60
14101;DHT22;7127;49.372;8.166;2023-06-14T14:53:44;28.70;27.40
14101;DHT22;7127;49.372;8.166;2023-06-14T14:56:11;28.70;27.40
14101;DHT22;7127;49.372;8.166;2023-06-14T14:58:38;28.80;27.40
14101;DHT22;7127;49.372;8.166;2023-06-14T15:01:06;28.80;27.40
14101;DHT22;7127;49.372;8.166;2023-06-14T15:03:33;28.90;27.40
14101;DHT22;7127;49.372;8.166;2023-06-14T15:06:00;28.90;27.40
14101;DHT22;7127;49.372;8.166;2023-06-14T15:08:27;28.90;27.40
14101;DHT22;7127;49.372;8.166;2023-06-14T15:10:54;28.90;27.10
14101;DHT22;7127;49.372;8.166;2023-06-14T15:13:20;29.00;27.20
14101;DHT22;7127;49.372;8.166;2023-06-14T15:15:49;29.00;27.20
14101;DHT22;7127;49.372;8.166;2023-06-14T15:18:17;29.00;27.10
14101;DHT22;7127;49.372;8.166;2023-06-14T15:20:45;29.00;27.00
14101;DHT22;7127;49.372;8.166;2023-06-14T15:23:12;28.90;26.80
14101;DHT22;7127;49.372;8.166;2023-06-14T15:25:45;28.90;26.70
14101;DHT22;7127;49.372;8.166;2023-06-14T15:28:12;28.80;26.80
14101;DHT22;7127;49.372;8.166;2023-06-14T15:30:38;28.70;26.90
14101;DHT22;7127;49.372;8.166;2023-06-14T15:33:05;28.70;26.90
14101;DHT22;7127;49.372;8.166;2023-06-14T15:35:33;28.70;27.00
14101;DHT22;7127;49.372;8.166;2023-06-14T15:38:00;28.70;26.90
14101;DHT22;7127;49.372;8.166;2023-06-14T15:40:27;28.60;27.00
14101;DHT22;7127;49.372;8.166;2023-06-14T15:42:54;28.70;27.10
14101;DHT22;7127;49.372;8.166;2023-06-14T15:45:21;28.60;27.10
14101;DHT22;7127;49.372;8.166;2023-06-14T15:47:48;28.60;27.10
14101;DHT22;7127;49.372;8.166;2023-06-14T15:50:15;28.50;27.10
14101;DHT22;7127;49.372;8.166;2023-06-14T15:52:43;28.60;27.20